Time;durP1;ratioP1;P1;durP2;ratioP2;P2;SDS_P1;SDS_P2;PMS_P1;PMS_P2;Temp;Humidity;BMP_temperature;BMP_pressure;BME280_temperature;BME280_humidity;BME280_pressure;Samples;Min_cycle;Max_cycle;Signal;HPM_P1;HPM_P2
2023/06/04 00:00:28;;;;;;;;;14.00;13.40;;;;;17.55;59.04;99556.53;5088758;28;8891;-72
2023/06/04 00:03:18;;;;;;;;;20.60;16.20;;;;;17.38;59.90;99560.03;5088304;28;9696;-73
2023/06/04 00:05:47;;;;;;;;;15.40;15.40;;;;;17.33;60.26;99554.09;5088318;28;8855;-74
2023/06/04 00:08:16;;;;;;;;;16.00;16.00;;;;;17.27;60.27;99559.69;5088690;28;8856;-75
2023/06/04 00:10:45;;;;;;;;;19.60;18.60;;;;;17.36;59.87;99553.94;5087008;28;9597;-76
2023/06/04 00:13:14;;;;;;;;;18.40;17.00;;;;;17.39;59.88;99548.47;5087269;28;8980;-75
2023/06/04 00:15:43;;;;;;;;;19.40;17.40;;;;;17.56;59.15;99550.31;5086771;28;8936;-75
2023/06/04 00:18:13;;;;;;;;;17.40;17.40;;;;;17.49;59.58;99540.91;5069110;28;8844;-75
2023/06/04 00:20:43;;;;;;;;;18.20;18.00;;;;;17.60;59.05;99543.88;5088672;28;8867;-75
2023/06/04 00:23:12;;;;;;;;;19.60;19.60;;;;;17.63;59.06;99537.53;5088153;28;8847;-74
2023/06/04 00:25:41;;;;;;;;;20.20;18.80;;;;;17.69;58.69;99542.56;5085600;28;8855;-75
2023/06/04 00:28:10;;;;;;;;;17.40;15.20;;;;;17.65;59.01;99549.84;5076929;28;8843;-75
2023/06/04 00:30:38;;;;;;;;;17.80;17.80;;;;;17.65;58.92;99541.03;5083509;28;9650;-75
2023/06/04 00:33:07;;;;;;;;;20.00;19.00;;;;;17.62;59.01;99542.00;5083590;28;8850;-76
2023/06/04 00:35:36;;;;;;;;;16.20;16.00;;;;;17.60;59.24;99551.00;5066610;28;9738;-75
2023/06/04 00:38:06;;;;;;;;;17.60;17.40;;;;;17.58;59.40;99551.09;5069449;28;8858;-75
2023/06/04 00:40:35;;;;;;;;;21.00;20.40;;;;;17.45;60.01;99545.50;5046564;28;8954;-78
2023/06/04 00:43:05;;;;;;;;;18.80;17.00;;;;;17.47;59.74;99548.94;5087285;28;8853;-75
2023/06/04 00:45:34;;;;;;;;;21.60;21.60;;;;;17.57;59.45;99544.03;5068727;28;9592;-77
2023/06/04 00:48:03;;;;;;;;;19.80;18.60;;;;;17.53;59.83;99546.00;5084473;28;8946;-76
2023/06/04 00:50:33;;;;;;;;;22.00;21.20;;;;;17.67;58.96;99549.78;5085049;28;8943;-77
2023/06/04 00:53:04;;;;;;;;;19.60;19.60;;;;;17.63;59.16;99549.06;5085415;28;8842;-75
2023/06/04 00:55:34;;;;;;;;;16.60;15.00;;;;;17.62;59.44;99547.31;5084201;28;8849;-75
2023/06/04 00:58:04;;;;;;;;;21.00;20.60;;;;;17.61;59.74;99547.41;5068705;28;8877;-74
2023/06/04 01:00:33;;;;;;;;;21.40;21.40;;;;;17.51;59.62;99550.53;5045273;28;8850;-73
2023/06/04 01:03:08;;;;;;;;;20.00;19.80;;;;;17.71;59.06;99552.19;5044762;28;8908;-73
2023/06/04 01:05:42;;;;;;;;;19.60;18.20;;;;;17.68;58.95;99544.34;5028299;28;8980;-74
2023/06/04 01:08:12;;;;;;;;;22.60;21.60;;;;;17.64;59.04;99536.63;5045298;28;8877;-74
2023/06/04 01:10:52;;;;;;;;;22.40;22.00;;;;;17.66;59.59;99538.25;5023697;28;8836;-75
2023/06/04 01:13:21;;;;;;;;;17.60;16.40;;;;;17.68;59.12;99541.69;5024960;28;8838;-75
2023/06/04 01:15:50;;;;;;;;;20.20;20.20;;;;;17.66;58.94;99543.56;5024510;28;8904;-75
2023/06/04 01:18:27;;;;;;;;;22.00;18.40;;;;;17.66;59.08;99535.59;5008260;28;8850;-78
2023/06/04 01:21:00;;;;;;;;;19.20;18.80;;;;;17.62;59.16;99539.34;5007709;28;8844;-75
2023/06/04 01:23:35;;;;;;;;;18.00;17.00;;;;;17.56;59.23;99527.22;5024726;28;8863;-74
2023/06/04 01:26:06;;;;;;;;;18.60;18.00;;;;;17.49;59.21;99538.25;5002990;28;8880;-77
2023/06/04 01:28:35;;;;;;;;;15.40;15.40;;;;;17.47;59.19;99538.31;4988570;28;8979;-78
2023/06/04 01:31:07;;;;;;;;;22.40;20.60;;;;;17.41;59.41;99530.66;5001135;28;8842;-75
2023/06/04 01:33:37;;;;;;;;;21.20;19.20;;;;;17.34;59.56;99532.78;5031274;28;8886;-75
2023/06/04 01:36:10;;;;;;;;;20.20;19.00;;;;;17.29;59.65;99532.13;5055195;28;8867;-75
2023/06/04 01:38:38;;;;;;;;;23.40;23.20;;;;;17.26;59.82;99531.41;5067718;28;8859;-79
2023/06/04 01:41:09;;;;;;;;;19.80;19.20;;;;;17.34;59.51;99526.56;5031506;28;8853;-75
2023/06/04 01:43:38;;;;;;;;;20.80;19.80;;;;;17.25;59.55;99533.22;5074371;28;8957;-76
2023/06/04 01:46:07;;;;;;;;;18.20;16.20;;;;;17.21;59.84;99528.94;5082508;28;8840;-75
2023/06/04 01:48:36;;;;;;;;;14.00;13.20;;;;;17.06;60.45;99530.56;5092135;28;8965;-75
2023/06/04 01:51:05;;;;;;;;;24.20;21.60;;;;;16.92;61.03;99527.69;5068558;28;8852;-76
2023/06/04 01:53:34;;;;;;;;;24.40;24.40;;;;;16.94;60.96;99528.50;5085857;28;8848;-76
2023/06/04 01:56:03;;;;;;;;;21.20;21.20;;;;;16.96;60.74;99516.84;5087656;28;8965;-74
2023/06/04 01:58:33;;;;;;;;;26.00;25.40;;;;;16.99;60.83;99515.84;5089678;28;8842;-76
2023/06/04 02:01:04;;;;;;;;;22.60;21.80;;;;;16.85;61.10;99520.94;5089639;28;8837;-76
2023/06/04 02:03:36;;;;;;;;;22.80;20.00;;;;;16.92;60.83;99525.91;5089416;28;8851;-74
2023/06/04 02:06:07;;;;;;;;;21.00;20.60;;;;;16.83;61.28;99514.88;5089604;28;8863;-74
2023/06/04 02:08:36;;;;;;;;;23.20;22.40;;;;;16.93;60.97;99508.19;5089275;28;8898;-74
2023/06/04 02:11:05;;;;;;;;;24.40;23.20;;;;;16.88;61.22;99510.19;5086106;28;8863;-76
2023/06/04 02:13:36;;;;;;;;;25.20;23.20;;;;;16.84;61.14;99512.13;5071078;28;8843;-75
2023/06/04 02:16:06;;;;;;;;;18.20;18.20;;;;;16.87;61.05;99522.63;5054257;28;9011;-76
2023/06/04 02:18:35;;;;;;;;;18.80;18.80;;;;;16.83;60.99;99515.72;5070878;28;8841;-74
2023/06/04 02:21:04;;;;;;;;;16.20;16.20;;;;;16.79;61.08;99517.66;5087893;28;8930;-76
2023/06/04 02:23:33;;;;;;;;;20.60;20.60;;;;;16.82;60.99;99514.00;5071410;28;8900;-75
2023/06/04 02:26:02;;;;;;;;;20.20;20.20;;;;;16.85;60.87;99521.81;5072508;28;8855;-74
2023/06/04 02:28:31;;;;;;;;;21.00;20.20;;;;;16.89;60.75;99522.53;5063034;28;8998;-74
2023/06/04 02:31:01;;;;;;;;;20.40;18.80;;;;;16.96;60.38;99518.66;5067757;28;8859;-74
2023/06/04 02:33:30;;;;;;;;;21.40;21.00;;;;;16.77;61.08;99522.16;5067572;28;8866;-73
2023/06/04 02:36:00;;;;;;;;;20.40;20.20;;;;;16.92;60.62;99517.09;5069528;28;8862;-74
2023/06/04 02:38:28;;;;;;;;;22.00;22.00;;;;;16.91;60.60;99531.28;5087603;28;8845;-74
2023/06/04 02:40:57;;;;;;;;;23.20;21.20;;;;;17.00;60.26;99520.22;5069891;28;8819;-75
2023/06/04 02:43:26;;;;;;;;;23.00;23.00;;;;;17.11;59.84;99525.03;5070687;28;8847;-75
2023/06/04 02:45:55;;;;;;;;;21.80;21.00;;;;;17.09;59.84;99534.88;5070832;28;8839;-74
2023/06/04 02:48:25;;;;;;;;;27.00;25.00;;;;;17.11;59.76;99527.69;5075106;28;8884;-75
2023/06/04 02:50:53;;;;;;;;;23.80;22.00;;;;;17.17;59.55;99530.03;5055140;28;8831;-75
2023/06/04 02:53:23;;;;;;;;;20.60;20.20;;;;;17.27;59.33;99528.69;5089710;28;8967;-73
2023/06/04 02:55:52;;;;;;;;;21.40;21.00;;;;;17.17;59.78;99533.56;5087511;28;8857;-75
2023/06/04 02:58:24;;;;;;;;;25.60;23.60;;;;;17.26;59.27;99534.06;5072160;28;8942;-74
2023/06/04 03:00:54;;;;;;;;;42.20;36.00;;;;;17.32;58.81;99533.78;5088581;28;8849;-76
2023/06/04 03:03:23;;;;;;;;;55.50;44.75;;;;;17.36;58.77;99532.69;5088489;28;8854;-74
2023/06/04 03:05:53;;;;;;;;;28.40;26.40;;;;;17.42;58.71;99539.47;5088184;28;8938;-75
2023/06/04 03:08:22;;;;;;;;;22.20;22.20;;;;;17.41;58.69;99535.13;5088949;28;8901;-74
2023/06/04 03:10:52;;;;;;;;;19.40;18.60;;;;;17.26;59.29;99537.59;5086029;28;8834;-75
2023/06/04 03:13:20;;;;;;;;;19.60;18.60;;;;;17.43;58.43;99539.41;5088354;28;8945;-75
2023/06/04 03:15:49;;;;;;;;;21.60;18.20;;;;;17.47;58.54;99537.47;5088131;28;8868;-76
2023/06/04 03:18:18;;;;;;;;;38.40;33.80;;;;;17.57;58.16;99538.72;5089291;28;8860;-74
2023/06/04 03:20:47;;;;;;;;;19.00;19.00;;;;;17.61;57.93;99540.31;5088715;28;8842;-74
2023/06/04 03:23:17;;;;;;;;;19.20;19.20;;;;;17.69;57.70;99542.56;5089705;28;8849;-75
2023/06/04 03:25:46;;;;;;;;;61.75;48.75;;;;;17.65;58.13;99549.00;5088228;28;8859;-75
2023/06/04 03:28:15;;;;;;;;;42.20;36.20;;;;;17.72;57.76;99547.72;5087899;28;8869;-73
2023/06/04 03:30:45;;;;;;;;;34.00;30.40;;;;;17.70;57.63;99555.78;5088147;28;8841;-74
2023/06/04 03:33:14;;;;;;;;;21.20;19.40;;;;;17.65;57.86;99564.94;5070100;28;8864;-74
2023/06/04 03:35:43;;;;;;;;;19.20;19.00;;;;;17.64;57.59;99561.41;5087198;28;8864;-74
2023/06/04 03:38:12;;;;;;;;;18.20;17.20;;;;;17.74;57.34;99552.03;5088965;28;8852;-76
2023/06/04 03:40:43;;;;;;;;;21.40;20.20;;;;;17.70;57.59;99558.47;5086259;28;8851;-75
2023/06/04 03:43:13;;;;;;;;;21.20;19.20;;;;;17.78;57.45;99552.75;5088099;28;8837;-74
2023/06/04 03:45:43;;;;;;;;;19.20;19.20;;;;;17.70;57.98;99555.78;5087744;28;8868;-75
2023/06/04 03:48:12;;;;;;;;;16.80;16.20;;;;;17.73;57.61;99565.41;5087456;28;8848;-75
2023/06/04 03:50:42;;;;;;;;;19.80;18.40;;;;;17.90;57.07;99570.72;5087354;28;8901;-75
2023/06/04 03:53:11;;;;;;;;;24.40;21.20;;;;;17.88;56.86;99577.06;5077976;28;8940;-75
2023/06/04 03:55:43;;;;;;;;;18.20;17.20;;;;;17.79;57.18;99573.06;5061236;28;8897;-75
2023/06/04 03:58:11;;;;;;;;;16.40;16.40;;;;;17.93;56.60;99580.34;5085913;28;8978;-75
2023/06/04 04:00:45;;;;;;;;;20.40;19.00;;;;;17.76;57.16;99578.56;5068974;28;8854;-76
2023/06/04 04:03:14;;;;;;;;;18.00;18.00;;;;;17.86;56.92;99576.28;5085877;28;8880;-76
2023/06/04 04:05:45;;;;;;;;;42.60;36.60;;;;;18.05;56.38;99582.41;5085752;28;8879;-74
2023/06/04 04:08:16;;;;;;;;;19.80;19.20;;;;;18.11;56.21;99586.56;5068862;28;8856;-74
2023/06/04 04:10:47;;;;;;;;;25.00;24.20;;;;;18.08;56.23;99579.59;5081681;28;8844;-74
2023/06/04 04:13:16;;;;;;;;;21.00;18.40;;;;;17.95;56.23;99575.81;5053570;28;8847;-75
2023/06/04 04:15:45;;;;;;;;;14.20;12.00;;;;;17.95;56.29;99579.34;5068419;28;8842;-75
2023/06/04 04:18:16;;;;;;;;;19.40;19.40;;;;;18.00;56.02;99570.25;5085450;28;8865;-74
2023/06/04 04:20:46;;;;;;;;;19.80;18.20;;;;;18.20;55.46;99575.44;5068550;28;9012;-75
2023/06/04 04:23:16;;;;;;;;;19.00;18.20;;;;;18.37;55.22;99581.69;5080750;28;8856;-75
2023/06/04 04:25:49;;;;;;;;;15.40;15.40;;;;;18.51;54.71;99579.13;5070718;28;8837;-75
2023/06/04 04:28:18;;;;;;;;;15.00;14.00;;;;;18.56;54.56;99582.41;5088624;28;8879;-76
2023/06/04 04:30:48;;;;;;;;;26.80;23.60;;;;;18.46;54.55;99586.50;5088514;28;9042;-75
2023/06/04 04:33:18;;;;;;;;;20.60;17.60;;;;;18.64;54.12;99582.84;5078264;28;8947;-76
2023/06/04 04:35:49;;;;;;;;;15.60;15.40;;;;;18.67;53.89;99587.16;5067994;28;8874;-74
2023/06/04 04:38:23;;;;;;;;;15.00;15.00;;;;;18.73;53.60;99592.16;5051351;28;8846;-76
2023/06/04 04:41:02;;;;;;;;;35.60;31.80;;;;;18.04;55.87;99591.31;5074956;28;8945;-74
2023/06/04 04:43:32;;;;;;;;;17.20;16.00;;;;;18.51;54.68;99589.78;5088660;28;8845;-76
2023/06/04 04:46:15;;;;;;;;;16.00;15.00;;;;;18.70;53.97;99602.97;5071204;28;8881;-75
2023/06/04 04:48:44;;;;;;;;;26.00;25.80;;;;;18.79;53.64;99601.66;5085506;28;8854;-75
2023/06/04 04:51:13;;;;;;;;;17.20;17.00;;;;;18.89;53.07;99606.41;5068408;28;8857;-76
2023/06/04 04:53:42;;;;;;;;;14.40;13.40;;;;;19.08;52.77;99600.91;5084847;28;9046;-76
2023/06/04 04:56:14;;;;;;;;;16.60;15.60;;;;;19.25;52.29;99607.09;5073887;28;9568;-76
2023/06/04 04:58:47;;;;;;;;;13.40;13.40;;;;;19.33;52.09;99600.38;5086652;28;8849;-75
2023/06/04 05:01:16;;;;;;;;;17.40;15.60;;;;;19.49;51.49;99595.03;5032288;28;8865;-76
2023/06/04 05:03:45;;;;;;;;;18.40;17.20;;;;;19.67;51.21;99601.16;5065981;28;8952;-74
2023/06/04 05:06:17;;;;;;;;;18.00;17.40;;;;;19.84;50.75;99612.63;5049400;28;8842;-74
2023/06/04 05:08:46;;;;;;;;;18.00;16.20;;;;;19.88;50.48;99606.19;5066286;28;8850;-75
2023/06/04 05:11:18;;;;;;;;;18.40;18.40;;;;;20.03;50.34;99607.09;5068008;28;8951;-73
2023/06/04 05:13:48;;;;;;;;;27.80;24.80;;;;;20.17;50.00;99601.78;5067586;28;9012;-74
2023/06/04 05:16:20;;;;;;;;;17.25;17.00;;;;;20.08;49.53;99610.31;5067237;28;8928;-75
2023/06/04 05:18:51;;;;;;;;;15.00;15.00;;;;;20.17;49.28;99612.44;5064599;28;8850;-74
2023/06/04 05:21:24;;;;;;;;;13.40;12.80;;;;;20.24;49.20;99615.66;5082589;28;8865;-76
2023/06/04 05:23:58;;;;;;;;;17.60;15.60;;;;;20.23;48.91;99624.59;5065563;28;8846;-76
2023/06/04 05:26:34;;;;;;;;;17.20;16.00;;;;;20.16;48.72;99621.44;5085223;28;8838;-74
2023/06/04 05:29:09;;;;;;;;;15.00;15.00;;;;;20.13;49.29;99626.94;5068900;28;8872;-74
2023/06/04 05:31:42;;;;;;;;;17.40;13.80;;;;;20.24;48.71;99634.34;5090165;28;8885;-76
2023/06/04 05:34:16;;;;;;;;;16.60;16.60;;;;;20.31;48.64;99632.16;5108257;28;8855;-75
2023/06/04 05:36:46;;;;;;;;;16.20;14.40;;;;;20.42;48.72;99633.22;5089307;28;8864;-76
2023/06/04 05:39:15;;;;;;;;;14.80;14.80;;;;;20.42;48.61;99641.22;5069242;28;9013;-74
2023/06/04 05:41:58;;;;;;;;;15.60;15.60;;;;;20.30;48.85;99644.66;5089929;28;8833;-74
2023/06/04 05:44:26;;;;;;;;;12.80;12.80;;;;;20.46;47.97;99641.91;5091798;28;8855;-75
2023/06/04 05:46:55;;;;;;;;;14.80;12.60;;;;;20.58;47.96;99648.31;5091328;28;8859;-74
2023/06/04 05:49:25;;;;;;;;;18.40;17.20;;;;;20.75;47.31;99648.13;5103830;28;8915;-74
2023/06/04 05:51:56;;;;;;;;;16.80;16.40;;;;;20.76;47.48;99643.66;5071147;28;8862;-75
2023/06/04 05:54:25;;;;;;;;;15.00;15.00;;;;;20.92;46.42;99651.59;5072237;28;8863;-75
2023/06/04 05:56:55;;;;;;;;;12.60;12.60;;;;;21.00;46.81;99662.69;5105236;28;8851;-74
2023/06/04 05:59:25;;;;;;;;;15.80;14.60;;;;;21.11;45.97;99657.50;5093974;28;8914;-74
2023/06/04 06:01:53;;;;;;;;;13.60;13.60;;;;;21.21;46.10;99661.31;5091737;28;8859;-75
2023/06/04 06:04:22;;;;;;;;;19.00;17.60;;;;;21.37;45.61;99671.91;5040634;28;8828;-75
2023/06/04 06:06:52;;;;;;;;;15.80;14.80;;;;;21.24;45.47;99668.28;5072384;28;8843;-80
2023/06/04 06:09:21;;;;;;;;;13.20;13.20;;;;;21.14;45.68;99683.19;5070023;28;9017;-76
2023/06/04 06:11:50;;;;;;;;;14.20;13.80;;;;;21.24;45.52;99679.00;5085911;28;8888;-80
2023/06/04 06:14:19;;;;;;;;;14.40;13.40;;;;;21.32;45.19;99679.34;5076078;28;9573;-77
2023/06/04 06:16:50;;;;;;;;;13.60;13.00;;;;;21.35;45.04;99671.16;5061611;28;8893;-77
2023/06/04 06:19:19;;;;;;;;;15.00;14.20;;;;;21.38;45.42;99678.09;5069941;28;8847;-76
2023/06/04 06:21:48;;;;;;;;;13.00;12.40;;;;;21.40;45.26;99692.22;5073819;28;8887;-79
2023/06/04 06:24:17;;;;;;;;;14.00;14.00;;;;;21.41;44.93;99678.75;5089876;28;8962;-76
2023/06/04 06:26:46;;;;;;;;;14.60;13.40;;;;;21.35;45.29;99676.50;5090694;28;8885;-81
2023/06/04 06:29:16;;;;;;;;;14.20;14.20;;;;;21.30;45.08;99691.97;5085185;28;8881;-77
2023/06/04 06:31:45;;;;;;;;;15.00;15.00;;;;;21.40;44.70;99694.91;5085457;28;9698;-77
2023/06/04 06:34:16;;;;;;;;;16.20;15.20;;;;;21.33;44.64;99697.09;5090955;28;8847;-78
2023/06/04 06:36:45;;;;;;;;;12.60;11.60;;;;;21.35;44.58;99695.22;5059179;28;8854;-79
2023/06/04 06:39:14;;;;;;;;;15.60;13.80;;;;;21.32;44.94;99692.72;5055423;28;8903;-79
2023/06/04 06:41:43;;;;;;;;;13.00;12.40;;;;;21.43;44.72;99690.22;5067881;28;8863;-77
2023/06/04 06:44:16;;;;;;;;;9.00;8.20;;;;;21.42;44.67;99687.63;5071753;28;8886;-77
2023/06/04 06:46:45;;;;;;;;;13.60;13.20;;;;;21.47;44.77;99685.53;5071359;28;8832;-79
2023/06/04 06:49:14;;;;;;;;;12.00;11.40;;;;;21.28;45.22;99687.69;5068841;28;8870;-78
2023/06/04 06:51:44;;;;;;;;;11.80;11.80;;;;;21.29;45.19;99698.25;5071954;28;8947;-79
2023/06/04 06:54:16;;;;;;;;;14.40;14.40;;;;;21.37;44.84;99687.94;5068419;28;8870;-78
2023/06/04 06:56:45;;;;;;;;;13.00;12.40;;;;;21.39;45.00;99693.16;5069999;28;9595;-80
2023/06/04 06:59:13;;;;;;;;;13.00;11.80;;;;;21.51;45.05;99686.19;5077418;28;9703;-76
2023/06/04 07:01:42;;;;;;;;;20.00;18.20;;;;;21.59;44.82;99691.91;5088291;28;8858;-74
2023/06/04 07:04:11;;;;;;;;;13.80;13.20;;;;;21.49;45.03;99691.63;5077076;28;8928;-74
2023/06/04 07:06:41;;;;;;;;;20.40;19.00;;;;;21.57;45.01;99691.16;5088069;28;8835;-75
2023/06/04 07:09:11;;;;;;;;;16.40;16.40;;;;;21.72;44.88;99694.69;5089286;28;8836;-75
2023/06/04 07:11:40;;;;;;;;;15.60;15.60;;;;;21.73;44.24;99701.72;5086847;28;8870;-75
2023/06/04 07:14:09;;;;;;;;;17.20;15.80;;;;;21.71;44.58;99693.81;5067334;28;8858;-77
2023/06/04 07:16:38;;;;;;;;;11.80;11.80;;;;;21.71;44.39;99695.63;5034611;28;8835;-74
2023/06/04 07:19:06;;;;;;;;;17.00;15.00;;;;;21.66;44.74;99695.94;5083185;28;8886;-76
2023/06/04 07:21:36;;;;;;;;;11.00;11.00;;;;;21.74;44.60;99693.59;5054073;28;8851;-75
2023/06/04 07:24:04;;;;;;;;;11.60;11.60;;;;;21.79;44.05;99698.69;5070941;28;8888;-75
2023/06/04 07:26:35;;;;;;;;;16.20;15.40;;;;;21.81;44.19;99708.31;5086472;28;8852;-74
2023/06/04 07:29:04;;;;;;;;;15.20;14.60;;;;;21.89;44.01;99706.94;5088586;28;8872;-76
2023/06/04 07:31:33;;;;;;;;;15.00;14.40;;;;;21.81;44.39;99710.97;5088437;28;8978;-75
2023/06/04 07:34:01;;;;;;;;;16.40;16.40;;;;;21.87;43.63;99707.06;5085818;28;8869;-75
2023/06/04 07:36:31;;;;;;;;;16.20;15.00;;;;;21.90;44.15;99717.56;5069325;28;8853;-78
2023/06/04 07:38:59;;;;;;;;;14.00;14.00;;;;;21.95;43.84;99714.56;5086249;28;8850;-76
2023/06/04 07:41:28;;;;;;;;;14.20;13.20;;;;;22.10;44.06;99710.03;5068852;28;8847;-75
2023/06/04 07:43:59;;;;;;;;;18.60;16.80;;;;;22.23;42.90;99713.59;5055019;28;8973;-75
2023/06/04 07:46:28;;;;;;;;;15.00;14.60;;;;;22.32;42.74;99712.16;5086989;28;8968;-75
2023/06/04 07:48:57;;;;;;;;;15.80;15.80;;;;;22.20;42.88;99713.78;5036112;28;8946;-76
2023/06/04 07:51:26;;;;;;;;;14.00;13.20;;;;;22.33;42.90;99719.22;5069294;28;8892;-76
2023/06/04 07:53:55;;;;;;;;;17.20;16.00;;;;;22.43;42.60;99723.00;5085530;28;9580;-75
2023/06/04 07:56:25;;;;;;;;;13.00;12.60;;;;;22.41;42.37;99715.06;5083463;28;8843;-75
2023/06/04 07:58:54;;;;;;;;;15.00;14.80;;;;;22.33;42.32;99716.53;5085547;28;8952;-75
2023/06/04 08:01:24;;;;;;;;;17.20;16.20;;;;;22.32;42.46;99714.84;5085938;28;8838;-75
2023/06/04 08:03:53;;;;;;;;;18.40;16.00;;;;;22.46;42.46;99712.06;5085656;28;8874;-77
2023/06/04 08:06:24;;;;;;;;;16.20;16.20;;;;;22.45;42.77;99712.16;5088320;28;8917;-76
2023/06/04 08:08:53;;;;;;;;;17.80;16.60;;;;;22.62;42.38;99719.94;5088443;28;8856;-77
2023/06/04 08:11:24;;;;;;;;;15.20;14.80;;;;;22.51;41.93;99720.66;5086093;28;8876;-75
2023/06/04 08:13:53;;;;;;;;;16.60;13.80;;;;;22.63;41.70;99723.47;5087190;28;8867;-76
2023/06/04 08:16:22;;;;;;;;;15.00;15.00;;;;;22.75;41.37;99727.97;5086715;28;8865;-76
2023/06/04 08:19:10;;;;;;;;;15.40;15.00;;;;;22.76;41.17;99727.84;5088231;28;8869;-75
2023/06/04 08:21:44;;;;;;;;;14.40;14.00;;;;;22.77;41.43;99726.06;5087670;28;9626;-76
2023/06/04 08:24:29;;;;;;;;;15.60;14.00;;;;;22.70;41.12;99730.13;5057179;28;8880;-73
2023/06/04 08:27:13;;;;;;;;;15.60;15.60;;;;;22.96;40.97;99731.88;5082428;28;8845;-76
2023/06/04 08:29:53;;;;;;;;;16.40;15.40;;;;;22.99;41.15;99728.97;5058960;28;8880;-76
2023/06/04 08:32:42;;;;;;;;;14.80;14.80;;;;;22.75;40.88;99723.47;5084009;28;8840;-75
2023/06/04 08:35:32;;;;;;;;;13.40;12.40;;;;;22.74;41.00;99723.56;5055830;28;8846;-77
2023/06/04 08:38:02;;;;;;;;;15.60;15.60;;;;;22.93;41.10;99724.03;5036558;28;9023;-76
2023/06/04 08:40:31;;;;;;;;;13.20;13.20;;;;;23.03;39.84;99726.94;5073339;28;8856;-77
2023/06/04 08:43:01;;;;;;;;;13.40;12.40;;;;;23.11;39.71;99732.63;5085876;28;8866;-75
2023/06/04 08:45:34;;;;;;;;;16.00;16.00;;;;;23.28;39.45;99727.88;5063313;28;8847;-76
2023/06/04 08:48:04;;;;;;;;;15.00;15.00;;;;;22.84;40.23;99726.47;5080072;28;8856;-77
2023/06/04 08:50:36;;;;;;;;;12.80;12.80;;;;;23.15;39.83;99730.59;5072091;28;8844;-77
2023/06/04 08:53:05;;;;;;;;;13.20;12.80;;;;;23.08;39.70;99723.94;5052668;28;8975;-76
2023/06/04 08:55:35;;;;;;;;;16.00;16.00;;;;;23.26;40.10;99732.50;5074765;28;8862;-75
2023/06/04 08:58:08;;;;;;;;;14.80;14.40;;;;;23.42;39.36;99733.13;5075415;28;8889;-76
2023/06/04 09:00:37;;;;;;;;;14.60;13.60;;;;;23.35;39.30;99742.56;5064185;28;8862;-75
2023/06/04 09:03:06;;;;;;;;;16.20;15.60;;;;;23.35;39.53;99740.72;5078736;28;9569;-78
2023/06/04 09:05:37;;;;;;;;;12.60;12.60;;;;;23.57;38.96;99742.78;5069993;28;8889;-79
2023/06/04 09:08:09;;;;;;;;;13.60;13.60;;;;;23.24;39.42;99735.28;5076229;28;8948;-76
2023/06/04 09:10:39;;;;;;;;;14.40;14.00;;;;;23.51;38.61;99731.59;5084216;28;8959;-75
2023/06/04 09:13:10;;;;;;;;;12.40;12.00;;;;;23.43;38.63;99737.53;5044932;28;8836;-79
2023/06/04 09:15:39;;;;;;;;;14.40;13.20;;;;;23.53;38.80;99745.81;5089945;28;8882;-76
2023/06/04 09:18:08;;;;;;;;;12.80;11.80;;;;;23.52;39.25;99733.34;5067063;28;8927;-78
2023/06/04 09:20:38;;;;;;;;;13.60;13.40;;;;;23.47;38.79;99724.72;5082476;28;8846;-75
2023/06/04 09:23:14;;;;;;;;;8.60;8.60;;;;;23.21;39.27;99722.09;5075139;28;8859;-76
2023/06/04 09:25:44;;;;;;;;;12.00;12.00;;;;;23.07;39.24;99724.88;5073093;28;8870;-80
2023/06/04 09:28:13;;;;;;;;;12.20;12.20;;;;;22.81;39.89;99730.22;5068671;28;8858;-77
2023/06/04 09:30:52;;;;;;;;;14.60;14.60;;;;;22.63;39.94;99718.09;5084455;28;8883;-76
2023/06/04 09:33:21;;;;;;;;;11.00;10.00;;;;;22.74;39.77;99723.56;5074692;28;8928;-76
2023/06/04 09:35:59;;;;;;;;;11.00;10.20;;;;;22.64;40.12;99717.13;5080583;28;8831;-79
2023/06/04 09:38:35;;;;;;;;;13.60;12.00;;;;;22.53;40.18;99725.91;5068117;28;8858;-75
2023/06/04 09:41:06;;;;;;;;;10.40;10.40;;;;;22.58;39.76;99732.69;5063588;28;8852;-77
2023/06/04 09:43:36;;;;;;;;;12.40;12.40;;;;;22.60;39.89;99722.72;5086743;28;8925;-74
2023/06/04 09:46:12;;;;;;;;;13.60;13.60;;;;;22.54;39.51;99728.50;5086675;28;8970;-76
2023/06/04 09:48:42;;;;;;;;;12.60;12.40;;;;;22.60;39.72;99732.56;5075201;28;9597;-76
2023/06/04 09:51:15;;;;;;;;;11.40;9.00;;;;;22.73;39.09;99724.53;5070817;28;8859;-74
2023/06/04 09:53:54;;;;;;;;;10.80;10.80;;;;;22.77;39.55;99724.22;5084485;28;8839;-74
2023/06/04 09:56:23;;;;;;;;;12.00;12.00;;;;;22.71;39.37;99726.47;5084228;28;8968;-77
2023/06/04 09:58:55;;;;;;;;;12.60;12.40;;;;;22.62;39.86;99730.66;5086722;28;8849;-76
2023/06/04 10:01:27;;;;;;;;;12.20;12.00;;;;;22.71;40.26;99737.19;5074390;28;8850;-77
2023/06/04 10:04:01;;;;;;;;;15.20;13.40;;;;;22.74;40.37;99727.09;5066250;28;9592;-73
2023/06/04 10:06:35;;;;;;;;;4.20;4.20;;;;;22.80;40.24;99731.19;5066394;28;8847;-74
2023/06/04 10:09:07;;;;;;;;;17.80;16.80;;;;;22.76;40.49;99725.19;5047659;28;8950;-76
2023/06/04 10:11:39;;;;;;;;;14.40;13.60;;;;;22.71;40.51;99730.03;5115523;27;8861;-76
2023/06/04 10:14:13;;;;;;;;;14.60;14.60;;;;;22.76;40.24;99716.28;5087252;27;8945;-75
2023/06/04 10:16:43;;;;;;;;;12.60;11.40;;;;;22.78;40.53;99728.59;5104760;28;8875;-77
2023/06/04 10:19:12;;;;;;;;;11.80;11.80;;;;;22.96;39.91;99733.72;5126865;27;8868;-76
2023/06/04 10:21:44;;;;;;;;;14.00;13.80;;;;;22.94;39.83;99728.44;5128855;27;8857;-77
2023/06/04 10:24:13;;;;;;;;;13.00;13.00;;;;;22.91;39.36;99733.16;5128573;27;8877;-76
2023/06/04 10:26:43;;;;;;;;;11.40;11.40;;;;;23.09;39.33;99731.00;5058571;27;9696;-76
2023/06/04 10:29:15;;;;;;;;;12.80;12.80;;;;;23.13;39.68;99730.69;5060902;27;8810;-76
2023/06/04 10:31:45;;;;;;;;;11.00;11.00;;;;;22.97;39.26;99725.53;5127826;27;8923;-77
2023/06/04 10:34:14;;;;;;;;;15.00;14.40;;;;;22.70;40.05;99732.81;5028969;27;8857;-76
2023/06/04 10:36:46;;;;;;;;;14.00;12.40;;;;;22.91;39.51;99730.47;5127812;27;9586;-75
2023/06/04 10:39:15;;;;;;;;;14.00;12.40;;;;;22.70;39.91;99730.13;5128331;27;8845;-77
2023/06/04 10:41:45;;;;;;;;;63.50;51.75;;;;;22.93;39.45;99733.91;5106523;27;8827;-76
2023/06/04 10:44:14;;;;;;;;;19.20;18.20;;;;;22.96;39.75;99731.88;5090723;28;8871;-80
2023/06/04 10:46:43;;;;;;;;;11.60;11.60;;;;;23.04;39.35;99723.28;5088434;28;8844;-78
2023/06/04 10:49:14;;;;;;;;;13.40;12.60;;;;;23.18;38.85;99725.00;5088503;28;8882;-81
2023/06/04 10:51:44;;;;;;;;;11.60;11.60;;;;;22.86;38.93;99721.88;5087931;28;8848;-83
2023/06/04 10:54:23;;;;;;;;;13.00;11.00;;;;;23.29;38.36;99722.41;5089057;28;8874;-76
2023/06/04 10:56:53;;;;;;;;;14.00;14.00;;;;;23.41;38.01;99719.81;5079371;28;8974;-77
2023/06/04 10:59:24;;;;;;;;;12.00;11.00;;;;;23.34;38.38;99714.03;5068986;28;8866;-78
2023/06/04 11:02:05;;;;;;;;;9.40;9.40;;;;;23.55;37.66;99725.06;5068107;28;9020;-78
2023/06/04 11:04:37;;;;;;;;;11.40;10.20;;;;;23.60;37.21;99725.56;5089509;28;8840;-78
2023/06/04 11:07:09;;;;;;;;;12.20;12.00;;;;;23.67;37.04;99715.25;5089731;28;8882;-78
2023/06/04 11:09:48;;;;;;;;;12.00;11.00;;;;;23.70;36.60;99721.28;5075727;28;8931;-79
2023/06/04 11:12:17;;;;;;;;;9.60;9.60;;;;;23.74;37.24;99706.66;5064383;28;8851;-76
2023/06/04 11:14:55;;;;;;;;;10.40;10.40;;;;;23.54;36.95;99707.25;5091788;28;8836;-75
2023/06/04 11:17:24;;;;;;;;;12.40;11.60;;;;;23.46;37.22;99697.03;5092653;28;8932;-79
2023/06/04 11:19:55;;;;;;;;;9.00;9.00;;;;;23.63;36.70;99701.22;5067170;28;8896;-78
2023/06/04 11:22:26;;;;;;;;;9.40;9.40;;;;;23.84;36.71;99700.59;5082309;28;8945;-79
2023/06/04 11:24:58;;;;;;;;;11.60;10.60;;;;;24.03;36.49;99697.41;5086902;28;8964;-83
2023/06/04 11:27:27;;;;;;;;;8.80;8.80;;;;;24.08;36.38;99689.88;5079828;28;8850;-79
2023/06/04 11:30:07;;;;;;;;;8.40;8.40;;;;;23.94;36.40;99689.06;5107829;28;8874;-80
2023/06/04 11:32:36;;;;;;;;;10.00;10.00;;;;;24.21;35.54;99684.47;5053717;28;8915;-79
2023/06/04 11:35:07;;;;;;;;;10.00;9.60;;;;;24.41;34.98;99672.16;5077947;28;8875;-79
2023/06/04 11:37:37;;;;;;;;;8.40;8.40;;;;;24.43;34.78;99689.03;5087232;28;8854;-78
2023/06/04 11:40:17;;;;;;;;;10.00;9.40;;;;;24.33;34.87;99680.81;5086212;28;8992;-79
2023/06/04 11:42:48;;;;;;;;;8.20;8.20;;;;;24.13;35.04;99691.25;5100131;28;9600;-80